sensor_id;sensor_type;location;lat;lon;timestamp;P1;durP1;ratioP1;P2;durP2;ratioP2
40931;SDS011;36257;46.052;12.540;2022-11-23T00:01:19;1.25;;;1.02;;
40931;SDS011;36257;46.052;12.540;2022-11-23T00:03:47;1.20;;;1.00;;
40931;SDS011;36257;46.052;12.540;2022-11-23T00:06:15;1.08;;;1.08;;
40931;SDS011;36257;46.052;12.540;2022-11-23T00:08:41;0.90;;;0.90;;
40931;SDS011;36257;46.052;12.540;2022-11-23T00:11:08;1.13;;;1.13;;
40931;SDS011;36257;46.052;12.540;2022-11-23T00:13:34;1.40;;;1.30;;
40931;SDS011;36257;46.052;12.540;2022-11-23T00:16:00;0.90;;;0.90;;
40931;SDS011;36257;46.052;12.540;2022-11-23T00:18:30;1.65;;;1.50;;
40931;SDS011;36257;46.052;12.540;2022-11-23T00:20:55;2.00;;;1.90;;
40931;SDS011;36257;46.052;12.540;2022-11-23T00:23:21;3.05;;;2.65;;
40931;SDS011;36257;46.052;12.540;2022-11-23T00:25:47;3.10;;;2.70;;
40931;SDS011;36257;46.052;12.540;2022-11-23T00:28:12;4.07;;;2.90;;
40931;SDS011;36257;46.052;12.540;2022-11-23T00:30:38;3.10;;;2.80;;
40931;SDS011;36257;46.052;12.540;2022-11-23T00:33:03;2.03;;;1.30;;
40931;SDS011;36257;46.052;12.540;2022-11-23T00:35:29;2.33;;;1.80;;
40931;SDS011;36257;46.052;12.540;2022-11-23T00:37:55;3.42;;;2.10;;
40931;SDS011;36257;46.052;12.540;2022-11-23T00:40:20;2.78;;;2.40;;
40931;SDS011;36257;46.052;12.540;2022-11-23T00:42:46;3.33;;;2.33;;
40931;SDS011;36257;46.052;12.540;2022-11-23T00:45:11;2.40;;;2.20;;
40931;SDS011;36257;46.052;12.540;2022-11-23T00:47:37;2.17;;;1.98;;
40931;SDS011;36257;46.052;12.540;2022-11-23T00:50:03;2.20;;;1.50;;
40931;SDS011;36257;46.052;12.540;2022-11-23T00:52:28;2.95;;;1.27;;
40931;SDS011;36257;46.052;12.540;2022-11-23T00:54:54;1.50;;;1.40;;
40931;SDS011;36257;46.052;12.540;2022-11-23T00:57:20;2.95;;;1.98;;
40931;SDS011;36257;46.052;12.540;2022-11-23T00:59:45;4.20;;;2.75;;
40931;SDS011;36257;46.052;12.540;2022-11-23T01:02:11;4.82;;;2.20;;
40931;SDS011;36257;46.052;12.540;2022-11-23T01:04:37;1.60;;;1.50;;
40931;SDS011;36257;46.052;12.540;2022-11-23T01:07:03;1.65;;;1.27;;
40931;SDS011;36257;46.052;12.540;2022-11-23T01:09:29;2.08;;;1.38;;
40931;SDS011;36257;46.052;12.540;2022-11-23T01:11:54;1.95;;;0.80;;
40931;SDS011;36257;46.052;12.540;2022-11-23T01:14:20;1.23;;;1.20;;
40931;SDS011;36257;46.052;12.540;2022-11-23T01:16:47;0.80;;;0.80;;
40931;SDS011;36257;46.052;12.540;2022-11-23T01:19:14;1.10;;;1.10;;
40931;SDS011;36257;46.052;12.540;2022-11-23T01:21:41;1.10;;;0.93;;
40931;SDS011;36257;46.052;12.540;2022-11-23T01:24:08;0.85;;;0.85;;
40931;SDS011;36257;46.052;12.540;2022-11-23T01:26:42;0.90;;;0.90;;
40931;SDS011;36257;46.052;12.540;2022-11-23T01:29:08;1.02;;;1.02;;
40931;SDS011;36257;46.052;12.540;2022-11-23T01:31:34;1.00;;;1.00;;
40931;SDS011;36257;46.052;12.540;2022-11-23T01:34:01;0.80;;;0.80;;
40931;SDS011;36257;46.052;12.540;2022-11-23T01:36:29;1.00;;;1.00;;
40931;SDS011;36257;46.052;12.540;2022-11-23T01:38:56;1.05;;;1.05;;
40931;SDS011;36257;46.052;12.540;2022-11-23T01:41:25;0.95;;;0.95;;
40931;SDS011;36257;46.052;12.540;2022-11-23T01:43:52;1.20;;;1.20;;
40931;SDS011;36257;46.052;12.540;2022-11-23T01:46:18;1.10;;;1.10;;
40931;SDS011;36257;46.052;12.540;2022-11-23T01:48:46;1.10;;;1.10;;
40931;SDS011;36257;46.052;12.540;2022-11-23T01:52:03;1.55;;;1.10;;
40931;SDS011;36257;46.052;12.540;2022-11-23T01:54:14;1.20;;;1.20;;
40931;SDS011;36257;46.052;12.540;2022-11-23T01:56:49;1.13;;;1.10;;
40931;SDS011;36257;46.052;12.540;2022-11-23T01:59:20;1.15;;;1.15;;
40931;SDS011;36257;46.052;12.540;2022-11-23T02:01:47;1.00;;;1.00;;
40931;SDS011;36257;46.052;12.540;2022-11-23T02:04:18;1.17;;;1.17;;
40931;SDS011;36257;46.052;12.540;2022-11-23T02:06:47;1.42;;;1.10;;
40931;SDS011;36257;46.052;12.540;2022-11-23T02:09:14;1.10;;;1.10;;
40931;SDS011;36257;46.052;12.540;2022-11-23T02:11:42;1.48;;;1.48;;
40931;SDS011;36257;46.052;12.540;2022-11-23T02:14:08;3.97;;;2.13;;
40931;SDS011;36257;46.052;12.540;2022-11-23T02:16:35;2.50;;;1.88;;
40931;SDS011;36257;46.052;12.540;2022-11-23T02:19:01;2.45;;;2.25;;
40931;SDS011;36257;46.052;12.540;2022-11-23T02:21:28;1.70;;;1.60;;
40931;SDS011;36257;46.052;12.540;2022-11-23T02:26:59;1.33;;;1.30;;
40931;SDS011;36257;46.052;12.540;2022-11-23T02:29:26;1.80;;;1.50;;
40931;SDS011;36257;46.052;12.540;2022-11-23T02:31:53;1.55;;;1.10;;
40931;SDS011;36257;46.052;12.540;2022-11-23T02:34:19;0.95;;;0.95;;
40931;SDS011;36257;46.052;12.540;2022-11-23T02:36:48;1.35;;;1.25;;
40931;SDS011;36257;46.052;12.540;2022-11-23T02:39:52;1.48;;;1.40;;
40931;SDS011;36257;46.052;12.540;2022-11-23T02:42:13;1.30;;;1.30;;
40931;SDS011;36257;46.052;12.540;2022-11-23T02:47:17;1.52;;;1.52;;
40931;SDS011;36257;46.052;12.540;2022-11-23T02:49:46;1.20;;;1.20;;
40931;SDS011;36257;46.052;12.540;2022-11-23T02:52:13;1.35;;;1.25;;
40931;SDS011;36257;46.052;12.540;2022-11-23T02:54:40;1.40;;;1.40;;
40931;SDS011;36257;46.052;12.540;2022-11-23T02:57:06;1.35;;;1.20;;
40931;SDS011;36257;46.052;12.540;2022-11-23T02:59:32;1.40;;;1.30;;
40931;SDS011;36257;46.052;12.540;2022-11-23T03:01:59;1.48;;;1.48;;
40931;SDS011;36257;46.052;12.540;2022-11-23T03:04:25;1.40;;;1.40;;
40931;SDS011;36257;46.052;12.540;2022-11-23T03:06:51;1.25;;;1.17;;
40931;SDS011;36257;46.052;12.540;2022-11-23T03:09:17;2.25;;;1.52;;
40931;SDS011;36257;46.052;12.540;2022-11-23T03:11:42;1.17;;;1.17;;
40931;SDS011;36257;46.052;12.540;2022-11-23T03:14:14;1.42;;;1.20;;
40931;SDS011;36257;46.052;12.540;2022-11-23T03:16:40;1.58;;;1.58;;
40931;SDS011;36257;46.052;12.540;2022-11-23T03:19:06;1.30;;;1.30;;
40931;SDS011;36257;46.052;12.540;2022-11-23T03:21:31;2.25;;;1.38;;
40931;SDS011;36257;46.052;12.540;2022-11-23T03:23:57;1.75;;;1.67;;
40931;SDS011;36257;46.052;12.540;2022-11-23T03:26:23;1.30;;;1.30;;
40931;SDS011;36257;46.052;12.540;2022-11-23T03:28:48;1.40;;;1.40;;
40931;SDS011;36257;46.052;12.540;2022-11-23T03:31:14;1.20;;;1.20;;
40931;SDS011;36257;46.052;12.540;2022-11-23T03:33:40;1.98;;;1.65;;
40931;SDS011;36257;46.052;12.540;2022-11-23T03:36:05;1.60;;;1.55;;
40931;SDS011;36257;46.052;12.540;2022-11-23T03:38:31;1.60;;;1.60;;
40931;SDS011;36257;46.052;12.540;2022-11-23T03:40:57;1.50;;;1.50;;
40931;SDS011;36257;46.052;12.540;2022-11-23T03:43:22;1.83;;;1.40;;
40931;SDS011;36257;46.052;12.540;2022-11-23T03:45:48;1.58;;;1.58;;
40931;SDS011;36257;46.052;12.540;2022-11-23T03:48:14;1.95;;;1.85;;
40931;SDS011;36257;46.052;12.540;2022-11-23T03:50:40;1.40;;;1.40;;
40931;SDS011;36257;46.052;12.540;2022-11-23T03:53:06;2.05;;;1.70;;
40931;SDS011;36257;46.052;12.540;2022-11-23T03:55:32;1.63;;;1.63;;
40931;SDS011;36257;46.052;12.540;2022-11-23T03:57:58;1.63;;;1.63;;
40931;SDS011;36257;46.052;12.540;2022-11-23T04:00:27;1.77;;;1.63;;
40931;SDS011;36257;46.052;12.540;2022-11-23T04:02:54;1.77;;;1.77;;
40931;SDS011;36257;46.052;12.540;2022-11-23T04:05:20;1.75;;;1.65;;
40931;SDS011;36257;46.052;12.540;2022-11-23T04:07:46;1.70;;;1.60;;
40931;SDS011;36257;46.052;12.540;2022-11-23T04:10:16;2.00;;;1.90;;
40931;SDS011;36257;46.052;12.540;2022-11-23T04:12:42;2.28;;;1.73;;
40931;SDS011;36257;46.052;12.540;2022-11-23T04:15:08;2.30;;;1.65;;
40931;SDS011;36257;46.052;12.540;2022-11-23T04:17:34;1.42;;;1.42;;
40931;SDS011;36257;46.052;12.540;2022-11-23T04:20:00;1.92;;;1.77;;
40931;SDS011;36257;46.052;12.540;2022-11-23T04:22:25;1.40;;;1.40;;
40931;SDS011;36257;46.052;12.540;2022-11-23T04:24:51;1.55;;;1.50;;
40931;SDS011;36257;46.052;12.540;2022-11-23T04:27:17;1.60;;;1.60;;
40931;SDS011;36257;46.052;12.540;2022-11-23T04:29:42;1.63;;;1.63;;
40931;SDS011;36257;46.052;12.540;2022-11-23T04:32:08;1.70;;;1.60;;
40931;SDS011;36257;46.052;12.540;2022-11-23T04:34:33;1.65;;;1.55;;
40931;SDS011;36257;46.052;12.540;2022-11-23T04:36:59;1.92;;;1.92;;
40931;SDS011;36257;46.052;12.540;2022-11-23T04:39:25;1.50;;;1.40;;
40931;SDS011;36257;46.052;12.540;2022-11-23T04:41:50;1.73;;;1.63;;
40931;SDS011;36257;46.052;12.540;2022-11-23T04:44:16;1.17;;;1.13;;
40931;SDS011;36257;46.052;12.540;2022-11-23T04:46:41;2.60;;;2.50;;
40931;SDS011;36257;46.052;12.540;2022-11-23T04:49:08;1.80;;;1.70;;
40931;SDS011;36257;46.052;12.540;2022-11-23T04:51:34;3.08;;;2.65;;
40931;SDS011;36257;46.052;12.540;2022-11-23T04:53:59;1.73;;;1.63;;
40931;SDS011;36257;46.052;12.540;2022-11-23T04:56:25;1.83;;;1.40;;
40931;SDS011;36257;46.052;12.540;2022-11-23T04:58:50;1.98;;;1.88;;
40931;SDS011;36257;46.052;12.540;2022-11-23T05:01:16;5.20;;;2.05;;
40931;SDS011;36257;46.052;12.540;2022-11-23T05:03:42;1.88;;;1.77;;
40931;SDS011;36257;46.052;12.540;2022-11-23T05:06:08;1.60;;;1.50;;
40931;SDS011;36257;46.052;12.540;2022-11-23T05:08:34;1.88;;;1.77;;
40931;SDS011;36257;46.052;12.540;2022-11-23T05:10:59;1.65;;;1.63;;
40931;SDS011;36257;46.052;12.540;2022-11-23T05:13:25;1.80;;;1.70;;
40931;SDS011;36257;46.052;12.540;2022-11-23T05:15:50;1.27;;;1.27;;
40931;SDS011;36257;46.052;12.540;2022-11-23T05:18:16;2.05;;;1.95;;
40931;SDS011;36257;46.052;12.540;2022-11-23T05:20:42;1.75;;;1.65;;
40931;SDS011;36257;46.052;12.540;2022-11-23T05:23:08;1.38;;;1.38;;
40931;SDS011;36257;46.052;12.540;2022-11-23T05:25:34;2.35;;;1.60;;
40931;SDS011;36257;46.052;12.540;2022-11-23T05:28:00;1.70;;;1.65;;
40931;SDS011;36257;46.052;12.540;2022-11-23T05:30:26;1.55;;;1.45;;
40931;SDS011;36257;46.052;12.540;2022-11-23T05:32:51;1.63;;;1.52;;
40931;SDS011;36257;46.052;12.540;2022-11-23T05:35:17;1.63;;;1.52;;
40931;SDS011;36257;46.052;12.540;2022-11-23T05:37:42;2.10;;;2.00;;
40931;SDS011;36257;46.052;12.540;2022-11-23T05:40:08;2.60;;;2.40;;
40931;SDS011;36257;46.052;12.540;2022-11-23T05:42:35;3.35;;;2.83;;
40931;SDS011;36257;46.052;12.540;2022-11-23T05:45:01;2.58;;;2.15;;
40931;SDS011;36257;46.052;12.540;2022-11-23T05:47:26;2.55;;;2.35;;
40931;SDS011;36257;46.052;12.540;2022-11-23T05:49:52;2.35;;;2.15;;
40931;SDS011;36257;46.052;12.540;2022-11-23T05:52:18;2.65;;;2.45;;
40931;SDS011;36257;46.052;12.540;2022-11-23T05:54:43;4.55;;;3.78;;
40931;SDS011;36257;46.052;12.540;2022-11-23T05:57:09;5.88;;;3.60;;
40931;SDS011;36257;46.052;12.540;2022-11-23T05:59:35;8.07;;;5.90;;
40931;SDS011;36257;46.052;12.540;2022-11-23T06:02:00;9.38;;;7.80;;
40931;SDS011;36257;46.052;12.540;2022-11-23T06:04:29;6.78;;;6.25;;
40931;SDS011;36257;46.052;12.540;2022-11-23T06:06:54;8.27;;;7.68;;
40931;SDS011;36257;46.052;12.540;2022-11-23T06:09:24;7.28;;;5.53;;
40931;SDS011;36257;46.052;12.540;2022-11-23T06:11:51;5.45;;;4.95;;
40931;SDS011;36257;46.052;12.540;2022-11-23T06:14:17;1.98;;;1.88;;
40931;SDS011;36257;46.052;12.540;2022-11-23T06:16:43;1.90;;;1.80;;
40931;SDS011;36257;46.052;12.540;2022-11-23T06:19:11;3.47;;;3.17;;
40931;SDS011;36257;46.052;12.540;2022-11-23T06:21:36;1.80;;;1.70;;
40931;SDS011;36257;46.052;12.540;2022-11-23T06:24:02;2.38;;;2.15;;
40931;SDS011;36257;46.052;12.540;2022-11-23T06:26:28;2.45;;;2.00;;
40931;SDS011;36257;46.052;12.540;2022-11-23T06:28:54;1.88;;;1.77;;
40931;SDS011;36257;46.052;12.540;2022-11-23T06:31:20;4.28;;;2.22;;
40931;SDS011;36257;46.052;12.540;2022-11-23T06:33:45;1.60;;;1.50;;
40931;SDS011;36257;46.052;12.540;2022-11-23T06:36:11;1.23;;;1.23;;
40931;SDS011;36257;46.052;12.540;2022-11-23T06:38:36;1.67;;;1.67;;
40931;SDS011;36257;46.052;12.540;2022-11-23T06:41:02;1.77;;;1.67;;
40931;SDS011;36257;46.052;12.540;2022-11-23T06:43:29;1.75;;;1.65;;
40931;SDS011;36257;46.052;12.540;2022-11-23T06:45:55;2.08;;;1.92;;
40931;SDS011;36257;46.052;12.540;2022-11-23T06:48:21;2.40;;;1.95;;
40931;SDS011;36257;46.052;12.540;2022-11-23T06:50:47;1.67;;;1.67;;
40931;SDS011;36257;46.052;12.540;2022-11-23T06:53:13;2.35;;;2.25;;
40931;SDS011;36257;46.052;12.540;2022-11-23T06:55:39;2.22;;;2.08;;
40931;SDS011;36257;46.052;12.540;2022-11-23T06:58:05;1.98;;;1.88;;
40931;SDS011;36257;46.052;12.540;2022-11-23T07:00:33;2.20;;;2.08;;
40931;SDS011;36257;46.052;12.540;2022-11-23T07:02:59;2.75;;;2.10;;
40931;SDS011;36257;46.052;12.540;2022-11-23T07:05:25;1.90;;;1.80;;
40931;SDS011;36257;46.052;12.540;2022-11-23T07:07:52;1.75;;;1.75;;
40931;SDS011;36257;46.052;12.540;2022-11-23T07:10:17;1.83;;;1.75;;
40931;SDS011;36257;46.052;12.540;2022-11-23T07:12:43;1.65;;;1.60;;
40931;SDS011;36257;46.052;12.540;2022-11-23T07:15:10;1.73;;;1.63;;
40931;SDS011;36257;46.052;12.540;2022-11-23T07:17:40;1.45;;;1.45;;
40931;SDS011;36257;46.052;12.540;2022-11-23T07:20:09;2.95;;;1.40;;
40931;SDS011;36257;46.052;12.540;2022-11-23T07:22:36;10.38;;;9.38;;
40931;SDS011;36257;46.052;12.540;2022-11-23T07:25:02;10.40;;;9.50;;
40931;SDS011;36257;46.052;12.540;2022-11-23T07:27:29;6.47;;;5.97;;
40931;SDS011;36257;46.052;12.540;2022-11-23T07:29:54;3.75;;;3.55;;
40931;SDS011;36257;46.052;12.540;2022-11-23T07:32:20;4.00;;;3.70;;
40931;SDS011;36257;46.052;12.540;2022-11-23T07:34:46;3.20;;;3.00;;
40931;SDS011;36257;46.052;12.540;2022-11-23T07:37:11;3.10;;;2.90;;
40931;SDS011;36257;46.052;12.540;2022-11-23T07:39:37;2.50;;;2.40;;
40931;SDS011;36257;46.052;12.540;2022-11-23T07:42:03;2.47;;;2.28;;
40931;SDS011;36257;46.052;12.540;2022-11-23T07:44:29;2.63;;;2.53;;
40931;SDS011;36257;46.052;12.540;2022-11-23T07:46:54;2.10;;;2.00;;
40931;SDS011;36257;46.052;12.540;2022-11-23T07:49:20;2.25;;;1.75;;
40931;SDS011;36257;46.052;12.540;2022-11-23T07:51:45;1.35;;;1.25;;
40931;SDS011;36257;46.052;12.540;2022-11-23T07:54:11;0.98;;;0.98;;
40931;SDS011;36257;46.052;12.540;2022-11-23T07:56:37;1.42;;;1.33;;
40931;SDS011;36257;46.052;12.540;2022-11-23T07:59:02;1.00;;;1.00;;
40931;SDS011;36257;46.052;12.540;2022-11-23T08:01:28;1.27;;;1.27;;
40931;SDS011;36257;46.052;12.540;2022-11-23T08:03:55;0.98;;;0.98;;
40931;SDS011;36257;46.052;12.540;2022-11-23T08:06:21;2.38;;;1.20;;
40931;SDS011;36257;46.052;12.540;2022-11-23T08:08:47;1.40;;;1.40;;
40931;SDS011;36257;46.052;12.540;2022-11-23T08:11:13;1.00;;;1.00;;
40931;SDS011;36257;46.052;12.540;2022-11-23T08:16:06;2.28;;;1.20;;
40931;SDS011;36257;46.052;12.540;2022-11-23T08:18:32;1.20;;;1.08;;
40931;SDS011;36257;46.052;12.540;2022-11-23T08:20:58;1.67;;;1.58;;
40931;SDS011;36257;46.052;12.540;2022-11-23T08:23:24;1.50;;;1.40;;
40931;SDS011;36257;46.052;12.540;2022-11-23T08:25:50;4.65;;;3.67;;
40931;SDS011;36257;46.052;12.540;2022-11-23T08:28:16;4.10;;;2.42;;
40931;SDS011;36257;46.052;12.540;2022-11-23T08:30:42;4.65;;;2.40;;
40931;SDS011;36257;46.052;12.540;2022-11-23T08:33:11;4.30;;;2.28;;
40931;SDS011;36257;46.052;12.540;2022-11-23T08:35:38;6.30;;;3.10;;
40931;SDS011;36257;46.052;12.540;2022-11-23T08:38:05;5.10;;;2.67;;
40931;SDS011;36257;46.052;12.540;2022-11-23T08:40:33;3.88;;;3.03;;
40931;SDS011;36257;46.052;12.540;2022-11-23T08:42:59;3.70;;;2.50;;
40931;SDS011;36257;46.052;12.540;2022-11-23T08:45:25;3.42;;;3.13;;
40931;SDS011;36257;46.052;12.540;2022-11-23T08:47:51;2.45;;;2.25;;
40931;SDS011;36257;46.052;12.540;2022-11-23T08:50:18;2.13;;;1.60;;
40931;SDS011;36257;46.052;12.540;2022-11-23T08:52:45;1.70;;;1.60;;
40931;SDS011;36257;46.052;12.540;2022-11-23T08:55:10;1.35;;;1.20;;
40931;SDS011;36257;46.052;12.540;2022-11-23T08:57:36;1.45;;;1.35;;
40931;SDS011;36257;46.052;12.540;2022-11-23T09:00:03;1.30;;;1.20;;
40931;SDS011;36257;46.052;12.540;2022-11-23T09:02:29;1.67;;;1.58;;
40931;SDS011;36257;46.052;12.540;2022-11-23T09:04:55;1.50;;;1.40;;
40931;SDS011;36257;46.052;12.540;2022-11-23T09:07:21;2.90;;;1.23;;
40931;SDS011;36257;46.052;12.540;2022-11-23T09:09:46;2.40;;;1.67;;
40931;SDS011;36257;46.052;12.540;2022-11-23T09:12:12;1.88;;;1.77;;
40931;SDS011;36257;46.052;12.540;2022-11-23T09:14:37;2.95;;;1.70;;
40931;SDS011;36257;46.052;12.540;2022-11-23T09:17:03;1.80;;;1.70;;
40931;SDS011;36257;46.052;12.540;2022-11-23T09:19:29;3.60;;;2.08;;
40931;SDS011;36257;46.052;12.540;2022-11-23T09:21:55;6.10;;;1.70;;
40931;SDS011;36257;46.052;12.540;2022-11-23T09:24:21;4.03;;;1.83;;
40931;SDS011;36257;46.052;12.540;2022-11-23T09:26:47;3.00;;;1.65;;
40931;SDS011;36257;46.052;12.540;2022-11-23T09:29:13;2.97;;;2.20;;
40931;SDS011;36257;46.052;12.540;2022-11-23T09:31:38;3.05;;;2.75;;
40931;SDS011;36257;46.052;12.540;2022-11-23T09:34:05;2.40;;;2.20;;
40931;SDS011;36257;46.052;12.540;2022-11-23T09:36:30;3.67;;;3.03;;
40931;SDS011;36257;46.052;12.540;2022-11-23T09:38:56;3.38;;;2.95;;
40931;SDS011;36257;46.052;12.540;2022-11-23T09:53:32;5.35;;;4.85;;
40931;SDS011;36257;46.052;12.540;2022-11-23T09:56:04;5.03;;;4.60;;
40931;SDS011;36257;46.052;12.540;2022-11-23T09:58:52;7.40;;;5.63;;
40931;SDS011;36257;46.052;12.540;2022-11-23T10:01:20;3.75;;;3.17;;
40931;SDS011;36257;46.052;12.540;2022-11-23T10:03:45;5.25;;;2.55;;
40931;SDS011;36257;46.052;12.540;2022-11-23T10:20:22;2.70;;;2.50;;
40931;SDS011;36257;46.052;12.540;2022-11-23T10:25:55;2.10;;;1.75;;
40931;SDS011;36257;46.052;12.540;2022-11-23T10:28:21;2.30;;;2.10;;
40931;SDS011;36257;46.052;12.540;2022-11-23T10:30:52;2.42;;;2.22;;
40931;SDS011;36257;46.052;12.540;2022-11-23T10:33:29;2.10;;;1.88;;
40931;SDS011;36257;46.052;12.540;2022-11-23T10:36:01;3.65;;;1.70;;
40931;SDS011;36257;46.052;12.540;2022-11-23T10:38:27;2.08;;;1.85;;
40931;SDS011;36257;46.052;12.540;2022-11-23T10:41:00;2.00;;;1.90;;
40931;SDS011;36257;46.052;12.540;2022-11-23T10:43:38;2.33;;;2.13;;
40931;SDS011;36257;46.052;12.540;2022-11-23T10:48:55;2.22;;;2.03;;
40931;SDS011;36257;46.052;12.540;2022-11-23T10:51:32;2.10;;;1.92;;
40931;SDS011;36257;46.052;12.540;2022-11-23T10:54:07;2.65;;;2.35;;
40931;SDS011;36257;46.052;12.540;2022-11-23T10:56:49;2.97;;;2.03;;
40931;SDS011;36257;46.052;12.540;2022-11-23T10:59:32;1.80;;;1.70;;
40931;SDS011;36257;46.052;12.540;2022-11-23T11:04:44;2.38;;;2.17;;
40931;SDS011;36257;46.052;12.540;2022-11-23T11:09:49;2.33;;;2.15;;
40931;SDS011;36257;46.052;12.540;2022-11-23T11:12:20;3.72;;;2.20;;
40931;SDS011;36257;46.052;12.540;2022-11-23T11:17:33;1.98;;;1.88;;
40931;SDS011;36257;46.052;12.540;2022-11-23T11:20:00;3.72;;;3.28;;
40931;SDS011;36257;46.052;12.540;2022-11-23T11:22:44;7.55;;;6.95;;
40931;SDS011;36257;46.052;12.540;2022-11-23T11:25:20;5.13;;;4.63;;
40931;SDS011;36257;46.052;12.540;2022-11-23T11:27:54;2.90;;;2.58;;
40931;SDS011;36257;46.052;12.540;2022-11-23T11:30:22;3.38;;;2.60;;
40931;SDS011;36257;46.052;12.540;2022-11-23T11:35:28;8.35;;;3.58;;
40931;SDS011;36257;46.052;12.540;2022-11-23T11:38:01;3.03;;;2.83;;
40931;SDS011;36257;46.052;12.540;2022-11-23T11:40:44;3.13;;;2.80;;
40931;SDS011;36257;46.052;12.540;2022-11-23T11:45:44;2.63;;;2.30;;
40931;SDS011;36257;46.052;12.540;2022-11-23T11:48:13;3.30;;;3.00;;
40931;SDS011;36257;46.052;12.540;2022-11-23T11:50:47;3.78;;;2.50;;
40931;SDS011;36257;46.052;12.540;2022-11-23T11:53:21;2.17;;;1.98;;
40931;SDS011;36257;46.052;12.540;2022-11-23T11:56:11;2.17;;;1.85;;
40931;SDS011;36257;46.052;12.540;2022-11-23T11:58:49;2.10;;;1.90;;
40931;SDS011;36257;46.052;12.540;2022-11-23T12:01:37;2.63;;;2.20;;
40931;SDS011;36257;46.052;12.540;2022-11-23T12:04:35;3.80;;;2.20;;
40931;SDS011;36257;46.052;12.540;2022-11-23T12:07:26;4.32;;;2.15;;
40931;SDS011;36257;46.052;12.540;2022-11-23T12:09:54;2.75;;;2.55;;
40931;SDS011;36257;46.052;12.540;2022-11-23T12:12:41;2.65;;;1.92;;
40931;SDS011;36257;46.052;12.540;2022-11-23T12:15:15;2.60;;;2.40;;
40931;SDS011;36257;46.052;12.540;2022-11-23T12:26:16;4.18;;;2.72;;
40931;SDS011;36257;46.052;12.540;2022-11-23T12:28:55;2.67;;;2.38;;
40931;SDS011;36257;46.052;12.540;2022-11-23T12:39:31;2.28;;;2.08;;
40931;SDS011;36257;46.052;12.540;2022-11-23T12:42:19;2.50;;;2.20;;
40931;SDS011;36257;46.052;12.540;2022-11-23T12:59:51;2.33;;;2.10;;
40931;SDS011;36257;46.052;12.540;2022-11-23T13:13:23;2.47;;;2.20;;
40931;SDS011;36257;46.052;12.540;2022-11-23T13:15:58;2.28;;;2.08;;
40931;SDS011;36257;46.052;12.540;2022-11-23T13:21:40;2.65;;;2.40;;
40931;SDS011;36257;46.052;12.540;2022-11-23T13:24:27;4.90;;;2.47;;
40931;SDS011;36257;46.052;12.540;2022-11-23T13:34:58;3.45;;;2.65;;
40931;SDS011;36257;46.052;12.540;2022-11-23T13:37:23;3.97;;;2.70;;
40931;SDS011;36257;46.052;12.540;2022-11-23T13:42:15;4.32;;;2.47;;
40931;SDS011;36257;46.052;12.540;2022-11-23T13:44:42;2.90;;;2.58;;
40931;SDS011;36257;46.052;12.540;2022-11-23T13:49:46;4.82;;;2.10;;
40931;SDS011;36257;46.052;12.540;2022-11-23T13:54:59;3.67;;;2.67;;
40931;SDS011;36257;46.052;12.540;2022-11-23T13:57:37;10.80;;;3.10;;
40931;SDS011;36257;46.052;12.540;2022-11-23T14:08:58;3.60;;;2.78;;
40931;SDS011;36257;46.052;12.540;2022-11-23T14:11:50;4.50;;;3.60;;
40931;SDS011;36257;46.052;12.540;2022-11-23T14:14:28;4.22;;;3.38;;
40931;SDS011;36257;46.052;12.540;2022-11-23T14:19:32;5.07;;;2.88;;
40931;SDS011;36257;46.052;12.540;2022-11-23T14:22:07;5.22;;;3.47;;
40931;SDS011;36257;46.052;12.540;2022-11-23T14:25:25;2.55;;;2.35;;
40931;SDS011;36257;46.052;12.540;2022-11-23T14:27:43;4.15;;;2.63;;
40931;SDS011;36257;46.052;12.540;2022-11-23T14:35:51;3.25;;;2.95;;
40931;SDS011;36257;46.052;12.540;2022-11-23T14:41:21;5.07;;;3.17;;
40931;SDS011;36257;46.052;12.540;2022-11-23T14:46:15;3.22;;;2.90;;
40931;SDS011;36257;46.052;12.540;2022-11-23T14:48:43;7.28;;;3.08;;
40931;SDS011;36257;46.052;12.540;2022-11-23T14:51:11;6.28;;;4.05;;
40931;SDS011;36257;46.052;12.540;2022-11-23T14:53:43;12.38;;;7.25;;
40931;SDS011;36257;46.052;12.540;2022-11-23T14:58:58;10.57;;;6.35;;
40931;SDS011;36257;46.052;12.540;2022-11-23T15:01:31;8.30;;;5.00;;
40931;SDS011;36257;46.052;12.540;2022-11-23T15:04:49;4.25;;;3.75;;
40931;SDS011;36257;46.052;12.540;2022-11-23T15:07:05;4.45;;;2.85;;
40931;SDS011;36257;46.052;12.540;2022-11-23T15:12:23;3.70;;;2.53;;
40931;SDS011;36257;46.052;12.540;2022-11-23T15:15:16;4.20;;;2.90;;
40931;SDS011;36257;46.052;12.540;2022-11-23T15:17:49;8.25;;;6.30;;
40931;SDS011;36257;46.052;12.540;2022-11-23T15:20:34;9.00;;;7.10;;
40931;SDS011;36257;46.052;12.540;2022-11-23T15:23:11;7.43;;;5.22;;
40931;SDS011;36257;46.052;12.540;2022-11-23T15:25:54;5.28;;;3.95;;
40931;SDS011;36257;46.052;12.540;2022-11-23T15:28:24;3.28;;;3.00;;
40931;SDS011;36257;46.052;12.540;2022-11-23T15:30:51;5.38;;;3.13;;
40931;SDS011;36257;46.052;12.540;2022-11-23T15:33:18;5.00;;;3.00;;
40931;SDS011;36257;46.052;12.540;2022-11-23T15:38:11;4.95;;;4.07;;
40931;SDS011;36257;46.052;12.540;2022-11-23T15:40:45;4.18;;;3.58;;
40931;SDS011;36257;46.052;12.540;2022-11-23T15:43:16;4.20;;;3.70;;
40931;SDS011;36257;46.052;12.540;2022-11-23T15:48:11;3.38;;;3.08;;
40931;SDS011;36257;46.052;12.540;2022-11-23T15:50:52;14.00;;;12.57;;
40931;SDS011;36257;46.052;12.540;2022-11-23T15:53:30;9.70;;;8.80;;
40931;SDS011;36257;46.052;12.540;2022-11-23T15:58:45;5.38;;;3.97;;
40931;SDS011;36257;46.052;12.540;2022-11-23T16:01:13;5.30;;;4.65;;
40931;SDS011;36257;46.052;12.540;2022-11-23T16:03:40;16.95;;;11.57;;
40931;SDS011;36257;46.052;12.540;2022-11-23T16:06:16;17.98;;;11.20;;
40931;SDS011;36257;46.052;12.540;2022-11-23T16:08:46;5.07;;;4.57;;
40931;SDS011;36257;46.052;12.540;2022-11-23T16:11:26;10.30;;;8.95;;
40931;SDS011;36257;46.052;12.540;2022-11-23T16:16:40;4.40;;;4.07;;
40931;SDS011;36257;46.052;12.540;2022-11-23T16:22:03;4.88;;;3.90;;
40931;SDS011;36257;46.052;12.540;2022-11-23T16:24:31;5.25;;;4.85;;
40931;SDS011;36257;46.052;12.540;2022-11-23T16:26:59;5.57;;;5.18;;
40931;SDS011;36257;46.052;12.540;2022-11-23T16:29:35;5.10;;;4.80;;
40931;SDS011;36257;46.052;12.540;2022-11-23T16:32:02;5.25;;;4.78;;
40931;SDS011;36257;46.052;12.540;2022-11-23T16:34:31;11.90;;;9.85;;
40931;SDS011;36257;46.052;12.540;2022-11-23T16:36:57;12.45;;;8.30;;
40931;SDS011;36257;46.052;12.540;2022-11-23T16:39:25;15.95;;;10.38;;
40931;SDS011;36257;46.052;12.540;2022-11-23T16:41:51;24.83;;;11.25;;
40931;SDS011;36257;46.052;12.540;2022-11-23T16:44:17;46.33;;;18.85;;
40931;SDS011;36257;46.052;12.540;2022-11-23T16:46:46;33.38;;;16.35;;
40931;SDS011;36257;46.052;12.540;2022-11-23T16:49:13;13.55;;;8.18;;
40931;SDS011;36257;46.052;12.540;2022-11-23T16:51:44;6.90;;;5.47;;
40931;SDS011;36257;46.052;12.540;2022-11-23T16:54:10;6.63;;;5.47;;
40931;SDS011;36257;46.052;12.540;2022-11-23T16:56:35;5.18;;;4.68;;
40931;SDS011;36257;46.052;12.540;2022-11-23T16:59:02;6.90;;;6.07;;
40931;SDS011;36257;46.052;12.540;2022-11-23T17:01:28;10.65;;;7.88;;
40931;SDS011;36257;46.052;12.540;2022-11-23T17:03:55;7.35;;;6.65;;
40931;SDS011;36257;46.052;12.540;2022-11-23T17:06:20;12.65;;;9.27;;
40931;SDS011;36257;46.052;12.540;2022-11-23T17:08:47;20.30;;;12.40;;
40931;SDS011;36257;46.052;12.540;2022-11-23T17:11:14;9.27;;;8.27;;
40931;SDS011;36257;46.052;12.540;2022-11-23T17:13:41;7.78;;;7.00;;
40931;SDS011;36257;46.052;12.540;2022-11-23T17:16:13;8.43;;;7.60;;
40931;SDS011;36257;46.052;12.540;2022-11-23T17:18:40;6.80;;;6.15;;